createdAt,value
2017-06-29T00:00:19.821Z,56.40
2017-06-29T00:02:45.874Z,56.50
2017-06-29T00:05:11.934Z,56.30
2017-06-29T00:07:37.990Z,56.50
2017-06-29T00:10:04.053Z,57.10
2017-06-29T00:12:30.098Z,58.50
2017-06-29T00:14:56.159Z,59.10
2017-06-29T00:17:29.551Z,59.10
2017-06-29T00:19:55.606Z,60.20
2017-06-29T00:22:21.649Z,57.70
2017-06-29T00:24:47.697Z,59.50
2017-06-29T00:27:28.706Z,60.00
2017-06-29T00:30:09.758Z,61.60
2017-06-29T00:32:35.818Z,62.00
2017-06-29T00:35:01.862Z,62.20
2017-06-29T00:37:28.003Z,62.10
2017-06-29T00:39:54.066Z,61.60
2017-06-29T00:42:20.130Z,60.80
2017-06-29T00:44:46.190Z,60.60
2017-06-29T00:47:12.255Z,62.50
2017-06-29T00:49:38.294Z,61.70
2017-06-29T00:52:04.356Z,61.20
2017-06-29T00:54:30.426Z,61.10
2017-06-29T00:56:56.491Z,61.50
2017-06-29T00:59:22.843Z,61.60
2017-06-29T01:01:48.893Z,61.60
2017-06-29T01:04:14.942Z,61.50
2017-06-29T01:06:40.986Z,62.00
2017-06-29T01:09:07.045Z,61.20
2017-06-29T01:11:33.085Z,62.40
2017-06-29T01:13:59.133Z,60.80
2017-06-29T01:22:21.599Z,61.20
2017-06-29T01:32:34.786Z,61.50
2017-06-29T01:35:00.867Z,61.40
2017-06-29T01:37:27.664Z,62.80
2017-06-29T01:39:54.497Z,62.40
2017-06-29T01:42:20.543Z,62.30
2017-06-29T01:44:46.598Z,62.80
2017-06-29T01:47:12.646Z,61.70
2017-06-29T01:49:38.694Z,61.60
2017-06-29T01:52:19.699Z,62.10
2017-06-29T01:54:45.754Z,62.20
2017-06-29T01:57:11.845Z,62.30
2017-06-29T01:59:37.916Z,62.40
2017-06-29T02:02:04.285Z,62.50
2017-06-29T02:04:30.329Z,63.40
2017-06-29T02:06:56.374Z,63.30
2017-06-29T02:09:22.455Z,63.20
2017-06-29T02:11:48.503Z,63.70
2017-06-29T02:14:14.578Z,62.80
2017-06-29T02:16:40.638Z,62.00
2017-06-29T02:19:06.671Z,62.40
2017-06-29T02:21:32.714Z,62.50
2017-06-29T02:23:58.830Z,62.30
2017-06-29T02:26:24.894Z,62.30
2017-06-29T02:28:50.977Z,62.30
2017-06-29T02:31:17.017Z,61.90
2017-06-29T02:33:43.062Z,61.90
2017-06-29T02:36:09.102Z,62.50
2017-06-29T02:38:35.149Z,62.80
2017-06-29T02:41:01.931Z,61.90
2017-06-29T02:43:27.977Z,61.90
2017-06-29T02:45:54.274Z,62.40
2017-06-29T02:48:20.326Z,62.10
2017-06-29T02:50:46.374Z,62.00
2017-06-29T02:53:12.419Z,62.20
2017-06-29T02:55:38.458Z,61.50
2017-06-29T02:58:05.236Z,61.90
2017-06-29T03:00:31.286Z,61.90
2017-06-29T03:02:57.351Z,61.40
2017-06-29T03:05:23.425Z,61.60
2017-06-29T03:07:50.465Z,61.80
2017-06-29T03:10:16.505Z,61.50
2017-06-29T03:12:42.546Z,61.50
2017-06-29T03:15:08.602Z,61.00
2017-06-29T03:17:34.668Z,61.40
2017-06-29T03:20:00.720Z,61.20
2017-06-29T03:22:26.778Z,61.10
2017-06-29T03:24:52.821Z,61.10
2017-06-29T03:27:18.872Z,60.90
2017-06-29T03:29:45.946Z,61.70
2017-06-29T03:32:11.992Z,61.20
2017-06-29T03:34:38.059Z,61.50
2017-06-29T03:37:04.101Z,61.60
2017-06-29T03:39:30.152Z,61.10
2017-06-29T03:41:56.193Z,60.50
2017-06-29T03:44:22.235Z,60.80
2017-06-29T03:46:48.281Z,61.00
2017-06-29T03:49:14.330Z,61.30
2017-06-29T03:51:41.381Z,61.00
2017-06-29T03:54:07.421Z,61.00
2017-06-29T03:56:33.466Z,61.50
2017-06-29T03:58:59.534Z,61.30
2017-06-29T04:01:25.576Z,61.10
2017-06-29T04:03:51.628Z,61.90
2017-06-29T04:06:17.665Z,62.10
2017-06-29T04:08:43.714Z,61.60
2017-06-29T04:11:09.758Z,61.70
2017-06-29T04:13:36.850Z,61.80
2017-06-29T04:16:02.922Z,61.70
2017-06-29T04:18:29.002Z,62.00
2017-06-29T04:20:55.045Z,61.70
2017-06-29T04:23:21.119Z,61.20
2017-06-29T04:25:47.166Z,61.70
2017-06-29T04:28:13.210Z,62.10
2017-06-29T04:30:39.270Z,62.40
2017-06-29T04:33:06.069Z,62.10
2017-06-29T04:35:32.186Z,62.00
2017-06-29T04:37:58.224Z,62.80
2017-06-29T04:40:24.315Z,62.20
2017-06-29T04:42:50.382Z,63.00
2017-06-29T04:45:16.443Z,62.60
2017-06-29T04:47:42.524Z,62.30
2017-06-29T04:50:08.622Z,62.20
2017-06-29T04:52:34.677Z,61.90
2017-06-29T04:55:00.718Z,61.90
2017-06-29T04:57:27.748Z,63.00
2017-06-29T04:59:53.790Z,62.90
2017-06-29T05:02:19.854Z,62.30
2017-06-29T05:04:45.922Z,62.80
2017-06-29T05:07:12.010Z,62.00
2017-06-29T05:09:38.087Z,61.60
2017-06-29T05:12:04.133Z,61.60
2017-06-29T05:14:30.197Z,62.30
2017-06-29T05:16:56.334Z,62.10
2017-06-29T05:19:38.177Z,61.80
2017-06-29T05:22:04.244Z,61.80
2017-06-29T05:24:30.362Z,62.00
2017-06-29T05:26:56.432Z,61.80
2017-06-29T05:29:22.499Z,61.70
2017-06-29T05:31:48.589Z,61.50
2017-06-29T05:34:14.637Z,62.10
2017-06-29T05:36:40.697Z,61.80
2017-06-29T05:39:06.790Z,61.30
2017-06-29T05:41:32.983Z,61.50
2017-06-29T05:43:59.072Z,61.50
2017-06-29T05:46:25.875Z,61.40
2017-06-29T05:48:51.954Z,61.40
2017-06-29T05:51:18.001Z,60.70
2017-06-29T05:53:44.062Z,61.00
2017-06-29T05:56:10.109Z,61.40
2017-06-29T05:58:36.166Z,60.60
2017-06-29T06:01:02.234Z,61.50
2017-06-29T06:03:29.185Z,61.00
2017-06-29T06:05:55.246Z,61.00
2017-06-29T06:08:21.293Z,61.40
2017-06-29T06:10:47.340Z,61.00
2017-06-29T06:13:13.390Z,60.90
2017-06-29T06:16:10.419Z,60.60
2017-06-29T06:18:36.470Z,60.90
2017-06-29T06:21:02.538Z,60.50
2017-06-29T06:23:29.418Z,60.70
2017-06-29T06:25:55.462Z,60.60
2017-06-29T06:28:21.533Z,60.50
2017-06-29T06:30:47.591Z,60.60
2017-06-29T06:33:13.626Z,60.70
2017-06-29T06:35:54.631Z,60.40
2017-06-29T06:38:51.871Z,60.30
2017-06-29T06:41:49.267Z,60.30
2017-06-29T06:44:15.622Z,60.60
2017-06-29T06:46:41.659Z,60.80
2017-06-29T06:49:07.700Z,60.60
2017-06-29T06:51:33.725Z,59.90
2017-06-29T06:53:59.775Z,59.90
2017-06-29T06:59:01.601Z,60.20
2017-06-29T07:01:27.638Z,60.60
2017-06-29T07:03:53.683Z,60.40
2017-06-29T07:06:20.746Z,61.00
2017-06-29T07:08:46.793Z,61.00
2017-06-29T07:11:12.835Z,61.50
2017-06-29T07:13:38.883Z,62.50
2017-06-29T07:16:04.938Z,61.50
2017-06-29T07:18:30.997Z,62.00
2017-06-29T07:20:57.118Z,61.80
2017-06-29T07:23:23.174Z,61.70
2017-06-29T07:25:49.239Z,61.60
2017-06-29T07:28:15.462Z,61.50
2017-06-29T07:30:41.533Z,61.20
2017-06-29T07:33:07.627Z,62.30
2017-06-29T07:35:33.683Z,62.00
2017-06-29T07:37:59.735Z,62.40
2017-06-29T07:40:25.825Z,60.80
2017-06-29T07:42:51.886Z,60.80
2017-06-29T07:45:17.993Z,61.70
2017-06-29T07:47:59.060Z,62.70
2017-06-29T07:50:25.439Z,62.40
2017-06-29T07:52:51.537Z,62.70
2017-06-29T07:55:17.669Z,61.50
2017-06-29T07:57:44.309Z,62.00
2017-06-29T08:00:10.485Z,61.70
2017-06-29T08:02:37.912Z,61.40
2017-06-29T08:05:03.985Z,62.60
2017-06-29T08:07:30.041Z,62.80
2017-06-29T08:09:56.869Z,63.00
2017-06-29T08:12:22.945Z,62.90
2017-06-29T08:14:49.043Z,63.10
2017-06-29T08:17:16.106Z,62.50
2017-06-29T08:19:42.154Z,62.50
2017-06-29T08:22:08.249Z,63.70
2017-06-29T08:24:34.301Z,62.80
2017-06-29T08:27:00.353Z,62.70
2017-06-29T08:29:26.402Z,61.80
2017-06-29T08:31:52.442Z,62.20
2017-06-29T08:34:19.453Z,61.80
2017-06-29T08:36:45.546Z,62.50
2017-06-29T08:39:11.586Z,61.30
2017-06-29T08:41:37.630Z,61.30
2017-06-29T08:44:03.669Z,60.20
2017-06-29T08:46:29.738Z,62.30
2017-06-29T08:48:56.628Z,61.50
2017-06-29T08:51:22.753Z,61.50
2017-06-29T08:53:48.813Z,60.90
2017-06-29T08:56:15.148Z,61.50
2017-06-29T08:58:41.208Z,60.00
2017-06-29T09:01:07.322Z,60.70
2017-06-29T09:03:33.370Z,60.90
2017-06-29T09:05:59.438Z,60.80
2017-06-29T09:08:25.506Z,60.10
2017-06-29T09:10:51.552Z,60.40
2017-06-29T09:13:17.638Z,59.60
2017-06-29T09:15:43.710Z,60.00
2017-06-29T09:18:10.558Z,61.00
2017-06-29T09:20:36.615Z,61.20
2017-06-29T09:23:02.694Z,60.10
2017-06-29T09:25:28.802Z,60.90
2017-06-29T09:27:55.594Z,60.70
2017-06-29T09:30:21.644Z,60.60
2017-06-29T09:32:47.694Z,61.30
2017-06-29T09:35:13.742Z,60.90
2017-06-29T09:37:39.792Z,61.30
2017-06-29T09:40:06.745Z,61.40
2017-06-29T09:42:32.809Z,61.30
2017-06-29T09:44:58.878Z,61.60
2017-06-29T09:47:24.957Z,60.40
2017-06-29T09:49:51.033Z,60.90
2017-06-29T09:52:17.077Z,61.60
2017-06-29T09:54:43.130Z,60.80
2017-06-29T09:57:09.183Z,59.80
2017-06-29T09:59:35.240Z,60.00
2017-06-29T10:02:02.230Z,61.20
2017-06-29T10:04:28.311Z,61.80
2017-06-29T10:06:54.366Z,61.20
2017-06-29T10:09:20.474Z,60.50
2017-06-29T10:11:46.517Z,61.50
2017-06-29T10:14:12.573Z,61.20
2017-06-29T10:16:38.660Z,60.30
2017-06-29T10:19:04.707Z,61.10
2017-06-29T10:21:30.761Z,60.70
2017-06-29T10:23:56.910Z,61.20
2017-06-29T10:26:22.979Z,61.30
2017-06-29T10:28:49.027Z,61.80
2017-06-29T10:31:15.087Z,61.10
2017-06-29T10:33:41.129Z,61.50
2017-06-29T10:36:07.182Z,62.20
2017-06-29T10:38:33.257Z,62.00
2017-06-29T10:40:59.382Z,61.20
2017-06-29T10:43:25.453Z,62.20
2017-06-29T10:45:51.771Z,62.30
2017-06-29T10:48:17.942Z,61.80
2017-06-29T10:50:43.994Z,62.40
2017-06-29T10:53:10.068Z,62.60
2017-06-29T10:55:36.105Z,62.40
2017-06-29T10:58:02.165Z,62.10
2017-06-29T11:00:28.226Z,63.00
2017-06-29T11:02:54.282Z,62.50
2017-06-29T11:05:20.332Z,62.70
2017-06-29T11:07:47.334Z,62.60
2017-06-29T11:10:13.489Z,62.60
2017-06-29T11:12:39.548Z,62.20
2017-06-29T11:15:06.342Z,63.10
2017-06-29T11:17:32.386Z,63.00
2017-06-29T11:19:58.448Z,62.80
2017-06-29T11:22:39.449Z,62.80
2017-06-29T11:25:05.494Z,62.40
2017-06-29T11:27:31.536Z,62.30
2017-06-29T11:29:57.765Z,61.20
2017-06-29T11:32:23.830Z,62.20
2017-06-29T11:34:49.893Z,61.80
2017-06-29T11:37:15.942Z,61.60
2017-06-29T11:39:42.010Z,61.80
2017-06-29T11:42:08.077Z,62.20
2017-06-29T11:44:34.141Z,62.10
2017-06-29T11:47:00.193Z,62.00
2017-06-29T11:49:26.240Z,62.80
2017-06-29T11:51:53.934Z,62.10
2017-06-29T11:54:20.006Z,62.10
2017-06-29T11:56:46.057Z,62.80
2017-06-29T11:59:12.095Z,62.10
2017-06-29T12:01:38.181Z,62.50
2017-06-29T12:04:04.238Z,62.00
2017-06-29T12:06:30.289Z,63.00
2017-06-29T12:08:56.348Z,63.00
2017-06-29T12:11:22.448Z,63.00
2017-06-29T12:13:49.367Z,60.90
2017-06-29T12:16:15.403Z,61.00
2017-06-29T12:18:41.445Z,62.40
2017-06-29T12:21:07.541Z,63.10
2017-06-29T12:23:33.597Z,63.20
2017-06-29T12:25:59.639Z,62.10
2017-06-29T12:28:25.798Z,62.00
2017-06-29T12:30:51.858Z,61.20
2017-06-29T12:33:17.905Z,60.70
2017-06-29T12:35:44.846Z,61.60
2017-06-29T12:38:10.910Z,61.50
2017-06-29T12:40:36.943Z,61.70
2017-06-29T12:43:03.005Z,62.90
2017-06-29T12:45:29.959Z,60.60
2017-06-29T12:47:56.032Z,61.30
2017-06-29T12:50:22.825Z,61.60
2017-06-29T12:52:48.882Z,61.60
2017-06-29T12:55:14.918Z,60.90
2017-06-29T12:57:41.089Z,61.10
2017-06-29T13:00:07.157Z,61.00
2017-06-29T13:02:33.220Z,61.60
2017-06-29T13:04:59.269Z,61.40
2017-06-29T13:07:25.382Z,61.30
2017-06-29T13:09:51.441Z,60.90
2017-06-29T13:12:17.549Z,60.40
2017-06-29T13:14:43.618Z,60.70
2017-06-29T13:17:09.674Z,61.00
2017-06-29T13:19:35.934Z,60.40
2017-06-29T13:22:01.998Z,60.00
2017-06-29T13:24:28.056Z,59.10
2017-06-29T13:26:54.127Z,58.40
2017-06-29T13:29:20.235Z,57.20
2017-06-29T13:31:46.312Z,57.90
2017-06-29T13:34:13.136Z,57.70
2017-06-29T13:36:39.279Z,57.80
2017-06-29T13:39:05.382Z,58.20
2017-06-29T13:41:33.054Z,57.50
2017-06-29T13:46:49.977Z,58.10
2017-06-29T13:49:16.064Z,57.60
2017-06-29T13:51:42.123Z,57.10
2017-06-29T13:54:08.174Z,57.90
2017-06-29T13:56:34.233Z,57.20
2017-06-29T13:59:00.310Z,56.80
2017-06-29T14:01:26.362Z,56.50
2017-06-29T14:03:52.425Z,56.80
2017-06-29T14:06:18.505Z,55.90
2017-06-29T14:08:44.579Z,55.60
2017-06-29T14:11:10.630Z,55.70
2017-06-29T14:13:36.685Z,56.20
2017-06-29T14:16:17.725Z,55.10
2017-06-29T14:18:43.805Z,55.20
2017-06-29T14:21:09.879Z,55.90
2017-06-29T14:23:35.958Z,54.60
2017-06-29T14:26:02.068Z,55.50
2017-06-29T14:28:28.130Z,55.70
2017-06-29T14:30:54.195Z,56.10
2017-06-29T14:33:20.293Z,54.90
2017-06-29T14:35:46.358Z,54.80
2017-06-29T14:38:12.410Z,54.90
2017-06-29T14:40:38.471Z,54.40
2017-06-29T14:43:04.531Z,54.10
2017-06-29T14:45:30.589Z,54.20
2017-06-29T14:47:56.681Z,53.90
2017-06-29T14:50:22.734Z,53.80
2017-06-29T14:52:48.797Z,53.90
2017-06-29T14:55:14.863Z,53.30
2017-06-29T14:57:40.958Z,53.10
2017-06-29T15:00:07.017Z,52.80
2017-06-29T15:02:33.089Z,53.40
2017-06-29T15:04:59.185Z,53.40
2017-06-29T15:07:25.246Z,52.60
2017-06-29T15:09:51.325Z,51.60
2017-06-29T15:12:17.404Z,52.40
2017-06-29T15:14:43.493Z,51.90
2017-06-29T15:17:09.543Z,52.90
2017-06-29T15:19:36.360Z,53.10
2017-06-29T15:22:02.442Z,53.10
2017-06-29T15:24:28.510Z,53.00
2017-06-29T15:26:54.565Z,53.10
2017-06-29T15:29:20.637Z,52.80
2017-06-29T15:31:46.701Z,53.40
2017-06-29T15:34:12.800Z,52.60
2017-06-29T15:36:38.870Z,52.20
2017-06-29T15:39:04.933Z,53.20
2017-06-29T15:41:31.026Z,52.30
2017-06-29T15:43:57.081Z,52.40
2017-06-29T15:46:23.157Z,51.80
2017-06-29T15:48:49.223Z,52.70
2017-06-29T15:51:15.278Z,53.00
2017-06-29T15:53:41.338Z,52.10
2017-06-29T15:56:07.412Z,52.10
2017-06-29T15:58:33.479Z,52.10
2017-06-29T16:00:59.534Z,52.10
2017-06-29T16:03:27.105Z,52.20
2017-06-29T16:05:53.157Z,52.20
2017-06-29T16:08:19.222Z,52.00
2017-06-29T16:10:45.282Z,51.50
2017-06-29T16:13:11.359Z,51.70
2017-06-29T16:15:37.418Z,51.70
2017-06-29T16:18:03.487Z,52.50
2017-06-29T16:20:29.591Z,51.00
2017-06-29T16:22:55.664Z,52.20
2017-06-29T16:25:21.742Z,51.50
2017-06-29T16:27:47.826Z,51.40
2017-06-29T16:30:13.922Z,51.40
2017-06-29T16:32:39.993Z,51.50
2017-06-29T16:35:06.057Z,51.90
2017-06-29T16:37:32.125Z,51.60
2017-06-29T16:39:58.213Z,51.30
2017-06-29T16:42:24.279Z,51.30
2017-06-29T16:44:50.349Z,51.10
2017-06-29T16:47:16.410Z,51.60
2017-06-29T16:49:42.513Z,51.70
2017-06-29T16:52:08.601Z,51.00
2017-06-29T16:54:34.654Z,51.70
2017-06-29T16:57:00.735Z,52.00
2017-06-29T16:59:26.840Z,50.60
2017-06-29T17:01:52.887Z,51.80
2017-06-29T17:04:18.958Z,51.50
2017-06-29T17:06:45.050Z,51.50
2017-06-29T17:09:11.106Z,51.30
2017-06-29T17:11:37.177Z,51.10
2017-06-29T17:14:03.262Z,51.70
2017-06-29T17:16:29.323Z,50.80
2017-06-29T17:18:55.405Z,50.90
2017-06-29T17:21:21.509Z,51.30
2017-06-29T17:23:47.578Z,51.70
2017-06-29T17:26:13.664Z,52.00
2017-06-29T17:28:39.732Z,51.70
2017-06-29T17:31:05.817Z,52.50
2017-06-29T17:33:31.887Z,52.10
2017-06-29T17:35:57.962Z,51.50
2017-06-29T17:38:24.014Z,52.50
2017-06-29T17:40:50.118Z,51.80
2017-06-29T17:43:16.181Z,52.30
2017-06-29T17:45:42.241Z,52.00
2017-06-29T17:48:08.305Z,52.20
2017-06-29T17:50:34.380Z,52.30
2017-06-29T17:53:00.445Z,52.60
2017-06-29T17:55:26.518Z,52.30
2017-06-29T17:57:52.610Z,52.40
2017-06-29T18:00:18.679Z,52.10
2017-06-29T18:02:44.778Z,52.80
2017-06-29T18:05:10.835Z,52.80
2017-06-29T18:07:36.902Z,52.90
2017-06-29T18:10:02.969Z,52.70
2017-06-29T18:12:29.797Z,51.60
2017-06-29T18:14:55.865Z,51.60
2017-06-29T18:17:21.928Z,52.90
2017-06-29T18:19:48.001Z,52.20
2017-06-29T18:22:14.066Z,52.10
2017-06-29T18:24:40.126Z,52.20
2017-06-29T18:27:06.227Z,52.30
2017-06-29T18:29:32.281Z,52.20
2017-06-29T18:31:58.358Z,52.80
2017-06-29T18:34:24.425Z,53.00
2017-06-29T18:36:50.473Z,52.60
2017-06-29T18:39:16.535Z,52.80
2017-06-29T18:41:42.622Z,52.80
2017-06-29T18:44:08.705Z,52.50
2017-06-29T18:46:34.754Z,52.30
2017-06-29T18:49:00.821Z,52.60
2017-06-29T18:51:26.882Z,52.40
2017-06-29T18:53:52.988Z,51.70
2017-06-29T18:56:19.061Z,51.50
2017-06-29T18:58:45.130Z,51.70
2017-06-29T19:01:11.189Z,52.20
2017-06-29T19:03:37.246Z,52.60
2017-06-29T19:06:03.462Z,53.40
2017-06-29T19:08:29.538Z,54.70
2017-06-29T19:10:55.602Z,55.90
2017-06-29T19:13:21.665Z,56.40
2017-06-29T19:15:47.744Z,56.70
2017-06-29T19:18:13.817Z,57.30
2017-06-29T19:20:39.870Z,57.70
2017-06-29T19:23:05.920Z,57.60
2017-06-29T19:25:31.967Z,58.00
2017-06-29T19:27:58.017Z,58.50
2017-06-29T19:30:24.074Z,57.70
2017-06-29T19:32:50.122Z,58.00
2017-06-29T19:35:16.181Z,58.00
2017-06-29T19:37:42.250Z,57.90
2017-06-29T19:40:08.298Z,57.90
2017-06-29T19:42:34.346Z,58.50
2017-06-29T19:45:00.403Z,58.30
2017-06-29T19:47:27.213Z,58.20
2017-06-29T19:49:53.270Z,58.20
2017-06-29T19:52:19.315Z,58.70
2017-06-29T19:54:45.362Z,59.20
2017-06-29T19:57:11.412Z,58.80
2017-06-29T19:59:37.493Z,58.40
2017-06-29T20:02:04.292Z,58.80
2017-06-29T20:04:30.332Z,58.70
2017-06-29T20:06:56.394Z,58.70
2017-06-29T20:09:22.472Z,58.60
2017-06-29T20:11:48.534Z,58.70
2017-06-29T20:14:14.723Z,58.70
2017-06-29T20:16:40.789Z,58.40
2017-06-29T20:19:07.606Z,59.10
2017-06-29T20:21:33.669Z,59.00
2017-06-29T20:24:00.006Z,58.70
2017-06-29T20:26:27.021Z,58.40
2017-06-29T20:28:53.081Z,58.40
2017-06-29T20:31:19.217Z,57.90
2017-06-29T20:33:45.317Z,58.40
2017-06-29T20:36:12.101Z,57.00
2017-06-29T20:38:38.162Z,57.20
2017-06-29T20:41:04.401Z,57.90
2017-06-29T20:43:30.683Z,57.90
2017-06-29T20:45:56.758Z,57.70
2017-06-29T20:48:22.822Z,57.60
2017-06-29T20:50:48.868Z,58.20
2017-06-29T20:53:14.954Z,57.40
2017-06-29T20:55:41.096Z,57.80
2017-06-29T20:58:07.394Z,57.50
2017-06-29T21:00:33.457Z,57.30
2017-06-29T21:02:59.526Z,57.60
2017-06-29T21:05:25.594Z,57.80
2017-06-29T21:07:51.668Z,57.00
2017-06-29T21:10:17.727Z,57.10
2017-06-29T21:12:43.798Z,57.80
2017-06-29T21:15:09.889Z,57.60
2017-06-29T21:17:35.933Z,57.50
2017-06-29T21:20:02.721Z,57.20
2017-06-29T21:22:28.774Z,57.20
2017-06-29T21:24:54.834Z,57.40
2017-06-29T21:27:20.899Z,57.60
2017-06-29T21:29:46.983Z,57.40
2017-06-29T21:32:13.057Z,57.40
2017-06-29T21:34:39.118Z,57.10
2017-06-29T21:37:05.166Z,57.60
2017-06-29T21:39:31.986Z,56.90
2017-06-29T21:41:58.029Z,56.90
2017-06-29T21:44:24.073Z,57.20
2017-06-29T21:46:50.148Z,57.50
2017-06-29T21:49:16.202Z,57.00
2017-06-29T21:51:42.246Z,57.20
2017-06-29T21:54:08.330Z,57.60
2017-06-29T21:56:34.391Z,57.40
2017-06-29T21:59:01.183Z,57.40
2017-06-29T22:01:58.624Z,57.30
2017-06-29T22:04:24.674Z,57.20
2017-06-29T22:06:50.749Z,57.30
2017-06-29T22:09:16.807Z,57.70
2017-06-29T22:11:42.859Z,57.20
2017-06-29T22:14:08.929Z,56.10
2017-06-29T22:16:34.977Z,56.10
2017-06-29T22:19:01.018Z,57.10
2017-06-29T22:21:27.091Z,57.40
2017-06-29T22:23:53.900Z,56.70
2017-06-29T22:26:19.959Z,56.60
2017-06-29T22:28:46.025Z,56.40
2017-06-29T22:31:12.091Z,56.90
2017-06-29T22:33:38.173Z,57.20
2017-06-29T22:36:04.214Z,56.90
2017-06-29T22:38:30.258Z,57.00
2017-06-29T22:40:56.314Z,56.80
2017-06-29T22:43:23.117Z,57.90
2017-06-29T22:45:49.177Z,57.80
2017-06-29T22:48:15.216Z,56.60
2017-06-29T22:50:41.270Z,57.30
2017-06-29T22:53:22.271Z,56.90
2017-06-29T22:55:48.322Z,56.90
2017-06-29T22:58:14.393Z,57.60
2017-06-29T23:00:40.462Z,57.20
2017-06-29T23:03:06.513Z,58.10
2017-06-29T23:05:32.567Z,58.00
2017-06-29T23:07:58.602Z,58.10
2017-06-29T23:10:24.632Z,57.90
2017-06-29T23:12:50.705Z,57.80
2017-06-29T23:15:16.753Z,58.40
2017-06-29T23:17:43.558Z,58.10
2017-06-29T23:20:09.597Z,58.00
2017-06-29T23:22:35.642Z,57.80
2017-06-29T23:25:01.689Z,57.40
2017-06-29T23:27:27.743Z,57.90
2017-06-29T23:29:53.779Z,57.50
2017-06-29T23:32:19.821Z,56.90
2017-06-29T23:34:45.897Z,57.00
2017-06-29T23:37:11.942Z,57.00
2017-06-29T23:39:37.981Z,56.80
2017-06-29T23:42:04.022Z,57.40
2017-06-29T23:44:30.085Z,57.50
2017-06-29T23:46:56.133Z,57.10
2017-06-29T23:49:22.169Z,56.90
2017-06-29T23:51:48.200Z,57.20
2017-06-29T23:54:14.241Z,57.40
2017-06-29T23:56:40.306Z,56.80
2017-06-29T23:59:06.342Z,57.40
